Latest Weather Observations for Parndana

IDS60801

Issued at 10:21 pm CDT Thursday 17 January 2019 (issued every 10 minutes, with the page automatically refreshed every 10 minutes)

About weather observations | Map of weather stations | Latest weather observations for SA | Other Formats
Station Details ID: 022843 Name: PARNDANA CFS AWS Lat: -35.79 Lon: 137.25 Height: 165.0 m
Data from the previous 72 hours. | See also: Recent months at Parndana
Date/Time
CDT
Temp
°C
App
Temp
°C
Dew
Point
°C
Rel
Hum
%
Delta-T
°C
Wind Press
QNH
hPa
Press
MSL
hPa
Rain since
9am
mm
Dir  Spd
km/h
Gust
km/h
Spd
kts
Gust
kts
17/10:00pm 19.0 16.7 17.5 91 0.9 SSW 26 37 14 20 - - 0.0
17/09:34pm 21.4 18.4 16.8 75 2.8 SW 28 50 15 27 - - 0.0
17/09:30pm 22.1 19.8 16.6 71 3.4 SW 24 33 13 18 - - 0.0
17/09:00pm 26.4 24.2 14.5 48 7.2 NW 19 26 10 14 - - 0.0
17/08:30pm 26.2 23.3 15.0 50 6.8 W 24 35 13 19 - - 0.0
17/08:21pm 26.8 22.2 14.5 46 7.4 WNW 32 50 17 27 - - 0.0
17/08:00pm 27.3 22.6 13.3 42 8.3 WNW 30 39 16 21 - - 0.0
17/07:30pm 28.1 22.3 11.6 36 9.6 WNW 33 56 18 30 - - 0.0
17/07:00pm 28.9 23.2 11.0 33 10.3 WNW 32 50 17 27 - - 0.0
17/06:58pm 28.6 23.6 10.8 33 10.2 WNW 28 50 15 27 - - 0.0
17/06:30pm 28.0 25.4 13.1 39 8.8 W 19 28 10 15 - - 0.0
17/06:00pm 27.6 26.0 14.9 45 7.7 WSW 17 22 9 12 - - 0.0
17/05:30pm 27.6 25.2 15.3 47 7.5 W 22 30 12 16 - - 0.0
17/05:00pm 27.3 23.6 15.0 47 7.5 W 28 43 15 23 - - 0.0
17/04:30pm 29.4 24.4 14.0 39 9.3 W 33 46 18 25 - - 0.0
17/04:20pm 30.2 26.1 13.9 37 9.9 WNW 28 46 15 25 - - 0.0
17/04:00pm 31.5 26.3 12.8 32 11.2 W 32 44 17 24 - - 0.0
17/03:30pm 33.1 29.3 14.7 33 11.4 W 28 39 15 21 - - 0.0
17/03:00pm 30.6 29.4 16.2 41 9.0 WSW 17 26 9 14 - - 0.0
17/02:30pm 29.9 28.8 16.3 43 8.5 WSW 17 26 9 14 - - 0.0
17/02:00pm 28.3 27.4 16.9 50 7.2 WSW 17 26 9 14 - - 0.0
17/01:30pm 25.8 27.0 18.2 63 4.8 W 9 17 5 9 - - 0.0
17/01:00pm 23.6 23.4 18.5 73 3.2 SW 17 24 9 13 - - 0.0
17/12:30pm 22.9 23.3 18.2 75 3.0 SW 13 35 7 19 - - 0.0
17/12:27pm 23.6 25.5 18.9 75 3.0 SSE 7 35 4 19 - - 0.0
17/12:00pm 21.7 22.7 17.7 78 2.5 SSE 9 13 5 7 - - 0.0
17/11:30am 21.5 22.6 18.1 81 2.1 SSW 9 15 5 8 - - 0.0
17/11:00am 23.1 21.6 17.6 71 3.4 SW 22 32 12 17 - - 0.0
17/10:30am 24.2 24.7 16.5 62 4.7 NW 9 19 5 10 - - 0.0
17/10:00am 25.5 26.0 16.6 58 5.5 N 9 13 5 7 - - 0.0
17/09:30am 25.6 25.1 15.9 55 6.0 NNW 13 19 7 10 - - 0.0
17/09:00am 23.3 24.5 17.3 69 3.7 NNE 7 11 4 6 - - 0.0
17/08:30am 22.6 23.7 17.1 71 3.4 NW 7 11 4 6 - - 0.0
17/08:00am 21.8 23.3 17.6 77 2.6 NNE 6 9 3 5 - - 0.0
17/07:30am 21.7 21.6 16.9 74 3.0 NW 13 15 7 8 - - 0.0
17/07:00am 20.8 22.0 17.4 81 2.1 WNW 7 9 4 5 - - 0.0
17/06:30am 20.9 20.7 16.7 77 2.6 NW 13 15 7 8 - - 0.0
17/06:00am 20.5 20.6 16.5 78 2.4 NNW 11 17 6 9 - - 0.0
17/05:30am 22.1 21.9 15.7 67 3.9 NNW 11 13 6 7 - - 0.0
17/05:00am 21.4 20.8 15.7 70 3.4 NNE 13 15 7 8 - - 0.0
17/04:30am 20.9 19.6 15.9 73 3.0 NNE 17 19 9 10 - - 0.0
17/04:00am 20.1 19.3 16.1 78 2.4 NNE 15 19 8 10 - - 0.0
17/03:30am 19.8 20.6 16.3 80 2.1 NNE 7 9 4 5 - - 0.0
17/03:00am 19.4 19.0 16.2 82 1.9 NE 13 17 7 9 - - 0.0
17/02:30am 19.2 20.2 16.4 84 1.7 ENE 6 7 3 4 - - 0.0
17/02:00am 19.2 19.6 16.4 84 1.7 SE 9 13 5 7 - - 0.0
17/01:30am 19.3 18.9 16.3 83 1.8 S 13 17 7 9 - - 0.0
17/01:00am 19.5 18.5 16.5 83 1.8 SSW 17 24 9 13 - - 0.0
17/12:30am 21.0 19.1 15.8 72 3.1 SSW 20 28 11 15 - - 0.0
17/12:00am 24.2 21.1 13.4 51 6.3 WSW 22 33 12 18 - - 0.0
 
Date/Time
CDT
Temp
°C
App
Temp
°C
Dew
Point
°C
Rel
Hum
%
Delta-T
°C
Wind Press
QNH
hPa
Press
MSL
hPa
Rain since
9am
mm
Dir  Spd
km/h
Gust
km/h
Spd
kts
Gust
kts
16/11:30pm 25.3 23.2 11.1 41 8.0 WNW 13 19 7 10 - - 0.0
16/11:00pm 26.8 22.4 10.5 36 9.2 WSW 24 33 13 18 - - 0.0
16/10:50pm 26.5 23.5 12.5 41 8.2 WSW 20 32 11 17 - - 0.0
16/10:30pm 20.9 21.5 15.7 72 3.1 NW 7 15 4 8 - - 0.0
16/10:00pm 20.6 20.4 15.8 74 2.9 NNE 11 15 6 8 - - 0.0
16/09:30pm 20.2 20.1 16.0 77 2.5 NE 11 13 6 7 - - 0.0
16/09:00pm 20.1 20.0 15.9 77 2.5 SE 11 15 6 8 - - 0.0
16/08:30pm 20.5 21.3 15.9 75 2.8 SSW 6 9 3 5 - - 0.0
16/08:00pm 20.4 19.9 15.8 75 2.8 S 13 17 7 9 - - 0.0
16/07:30pm 20.5 20.0 15.9 75 2.8 SSE 13 15 7 8 - - 0.0
16/07:00pm 20.8 20.0 16.2 75 2.8 S 15 22 8 12 - - 0.0
16/06:30pm 20.5 18.9 16.1 76 2.7 SSE 19 28 10 15 - - 0.0
16/06:00pm 20.6 17.7 16.2 76 2.7 S 26 35 14 19 - - 0.0
16/05:30pm 21.9 18.3 16.2 70 3.5 S 30 43 16 23 - - 0.0
16/05:00pm 23.7 18.9 16.5 64 4.4 SSW 37 46 20 25 - - 0.0
16/04:51pm 24.4 19.2 16.6 61 4.8 SSW 39 52 21 28 - - 0.0
16/04:30pm 29.6 25.8 15.7 43 8.6 SSW 30 43 16 23 - - 0.0
16/04:15pm 33.0 30.8 12.1 28 12.5 ESE 15 46 8 25 - - 0.0
16/04:00pm 38.4 36.0 5.1 13 18.3 N 7 13 4 7 - - 0.0
16/03:30pm 37.3 31.9 4.3 13 17.8 NE 22 28 12 15 - - 0.0
16/03:00pm 34.5 29.2 6.7 18 15.3 NNE 24 33 13 18 - - 0.0
16/02:30pm 34.0 31.3 13.5 29 12.5 ENE 20 28 11 15 - - 0.0
16/02:00pm 31.6 30.4 15.1 36 10.2 ENE 15 22 8 12 - - 0.0
16/01:30pm 29.4 28.4 15.5 43 8.6 SE 15 22 8 12 - - 0.0
16/01:00pm 30.1 28.0 12.5 34 10.4 ENE 15 22 8 12 - - 0.0
16/12:30pm 28.3 25.2 15.6 46 7.8 ENE 26 35 14 19 - - 0.0
16/12:00pm 26.5 25.4 16.4 53 6.3 ENE 17 24 9 13 - - 0.0
16/11:56am 27.4 26.7 17.3 54 6.4 ENE 17 22 9 12 - - 0.0
16/11:30am 22.1 21.7 17.2 74 3.0 SE 15 20 8 11 - - 0.0
16/11:00am 21.3 19.6 16.3 73 3.0 SSE 20 28 11 15 - - 0.0
16/10:30am 21.1 19.0 17.1 78 2.5 S 24 33 13 18 - - 0.0
16/10:00am 20.7 19.1 16.5 77 2.6 SSE 20 28 11 15 - - 0.0
16/09:30am 20.2 19.7 17.0 82 2.0 S 15 26 8 14 - - 0.0
16/09:00am 19.2 18.5 16.4 84 1.7 SSW 15 22 8 12 - - 0.0
16/08:30am 19.0 19.7 16.2 84 1.7 S 7 13 4 7 - - 0.0
16/08:00am 18.9 19.4 16.5 86 1.4 ESE 9 11 5 6 - - 0.0
16/07:30am 18.3 18.3 16.3 88 1.2 S 11 15 6 8 - - 0.0
16/07:00am 17.8 17.3 16.0 89 1.1 E 13 15 7 8 - - 0.0
16/06:30am 17.5 17.4 16.0 91 0.9 ENE 11 20 6 11 - - 0.0
16/06:00am 17.4 18.1 16.1 92 0.8 ENE 7 19 4 10 - - 0.0
16/05:30am 17.1 16.6 16.0 93 0.7 ENE 13 17 7 9 - - 0.0
16/05:00am 17.0 17.3 15.9 93 0.7 SE 9 13 5 7 - - 0.0
16/04:30am 17.0 15.7 15.7 92 0.8 SSE 17 20 9 11 - - 0.0
16/04:00am 17.4 15.8 16.1 92 0.8 SSE 19 24 10 13 - - 0.0
16/03:30am 17.4 15.9 16.3 93 0.7 SSE 19 26 10 14 - - 0.0
16/03:00am 17.3 16.1 16.2 93 0.7 SSE 17 22 9 12 - - 0.0
16/02:30am 17.3 16.1 16.2 93 0.7 SSE 17 22 9 12 - - 0.0
16/02:00am 17.3 15.8 16.2 93 0.7 SSE 19 24 10 13 - - 0.0
16/01:30am 17.3 16.5 16.2 93 0.7 SE 15 19 8 10 - - 0.0
16/01:00am 17.4 16.1 15.9 91 0.9 SSE 17 28 9 15 - - 0.0
16/12:30am 17.7 16.2 16.2 91 0.9 SSE 19 24 10 13 - - 0.0
16/12:00am 18.0 16.4 16.5 91 0.9 SSE 20 28 11 15 - - 0.0
 
Date/Time
CDT
Temp
°C
App
Temp
°C
Dew
Point
°C
Rel
Hum
%
Delta-T
°C
Wind Press
QNH
hPa
Press
MSL
hPa
Rain since
9am
mm
Dir  Spd
km/h
Gust
km/h
Spd
kts
Gust
kts
15/11:30pm 18.1 16.7 16.6 91 0.9 S 19 28 10 15 - - 0.0
15/11:00pm 18.1 16.5 16.4 90 1.0 S 20 28 11 15 - - 0.0
15/10:30pm 18.3 16.0 16.6 90 1.0 S 24 30 13 16 - - 0.0
15/10:00pm 18.4 17.1 16.7 90 1.0 S 19 26 10 14 - - 0.0
15/09:30pm 18.5 17.1 16.5 88 1.2 S 19 26 10 14 - - 0.0
15/09:00pm 19.1 17.4 15.8 81 2.0 S 19 26 10 14 - - 0.0
15/08:30pm 20.0 17.3 14.6 71 3.2 S 22 30 12 16 - - 0.0
15/08:00pm 21.3 16.9 14.0 63 4.3 SSW 30 41 16 22 - - 0.0
15/07:30pm 22.7 19.1 15.3 63 4.4 S 28 37 15 20 - - 0.0
15/07:00pm 22.6 19.8 15.4 64 4.3 SSE 24 32 13 17 - - 0.0
15/06:30pm 23.3 21.3 15.4 61 4.8 S 20 26 11 14 - - 0.0
15/06:00pm 24.6 20.5 15.0 55 5.8 SSW 30 41 16 22 - - 0.0
15/05:30pm 25.8 22.2 15.2 52 6.4 SSW 28 39 15 21 - - 0.0
15/05:29pm 25.8 22.1 14.9 51 6.6 SSW 28 39 15 21 - - 0.0
15/05:00pm 30.8 25.6 7.3 23 12.9 SSW 24 39 13 21 - - 0.0
15/04:45pm 33.6 25.7 6.0 18 15.0 SW 37 50 20 27 - - 0.0
15/04:37pm 38.7 32.9 0.2 9 19.6 W 20 46 11 25 - - 0.0
15/04:30pm 40.7 36.0 -1.8 7 21.3 WNW 13 22 7 12 - - 0.0
15/04:00pm 41.1 36.9 -3.6 6 21.9 NE 9 17 5 9 - - 0.0
15/03:30pm 40.0 35.8 -4.3 6 21.3 WSW 9 17 5 9 - - 0.0
15/03:00pm 41.0 35.4 -6.0 5 22.2 WSW 15 22 8 12 - - 0.0
15/02:30pm 40.0 35.3 -9.6 4 22.0 WNW 9 17 5 9 - - 0.0
15/02:00pm 38.8 34.4 -10.4 4 21.3 SW 7 15 4 8 - - 0.0
15/01:30pm 37.9 33.7 -8.2 5 20.5 ESE 7 17 4 9 - - 0.0
15/01:00pm 37.2 32.2 -4.3 7 19.6 S 13 30 7 16 - - 0.0
15/12:30pm 34.5 30.8 -0.2 11 17.1 SW 9 15 5 8 - - 0.0
15/12:00pm 31.4 28.6 8.4 24 12.8 SSW 13 22 7 12 - - 0.0
15/11:30am 30.2 25.0 10.2 29 11.4 SSW 28 39 15 21 - - 0.0
15/11:00am 33.3 27.6 6.6 19 14.6 SW 26 39 14 21 - - 0.0
15/10:30am 32.3 28.0 10.9 27 12.5 SSW 24 32 13 17 - - 0.0
15/10:00am 34.0 29.8 5.5 17 15.4 SW 17 22 9 12 - - 0.0
15/09:30am 32.1 29.6 4.0 17 14.7 NW 6 9 3 5 - - 0.0
15/09:00am 30.2 28.7 4.8 20 13.3 N 2 6 1 3 - - 0.0
15/08:30am 26.8 25.7 8.3 31 10.1 N 4 4 2 2 - - 0.0
15/08:00am 23.7 22.8 9.3 40 7.8 N 4 6 2 3 - - 0.0
15/07:30am 21.9 21.0 9.4 45 6.8 NW 4 6 2 3 - - 0.0
15/07:00am 20.5 18.4 8.2 45 6.5 SSW 9 11 5 6 - - 0.0
15/06:30am 20.1 18.1 8.8 48 6.0 SW 9 13 5 7 - - 0.0
15/06:00am 18.8 17.0 9.3 54 5.0 SW 9 13 5 7 - - 0.0
15/05:30am 21.1 20.2 7.7 42 7.0 NNW 2 6 1 3 - - 0.0
15/05:00am 23.0 21.4 6.3 34 8.6 WNW 4 7 2 4 - - 0.0
15/04:30am 21.8 19.8 6.1 36 8.0 NW 6 7 3 4 - - 0.0
15/04:00am 21.7 19.3 5.2 34 8.2 WNW 7 9 4 5 - - 0.0
15/03:30am 22.2 19.9 4.7 32 8.7 WNW 6 7 3 4 - - 0.0
15/03:00am 20.8 18.5 7.4 42 6.9 WSW 9 11 5 6 - - 0.0
15/02:30am 21.4 19.8 8.0 42 7.0 WSW 6 11 3 6 - - 0.0
15/02:00am 22.4 20.5 6.6 36 8.1 SW 6 11 3 6 - - 0.0
15/01:36am 23.1 19.6 7.2 36 8.3 NW 15 39 8 21 - - 0.0
15/01:30am 22.5 20.0 6.7 36 8.2 NE 9 13 5 7 - - 0.0
15/01:00am 22.3 19.8 8.4 41 7.4 NE 11 13 6 7 - - 0.0
15/12:30am 22.8 21.0 7.8 38 7.9 E 7 9 4 5 - - 0.0
15/12:00am 22.3 21.2 9.8 45 6.8 SSW 6 9 3 5 - - 0.0
 
Date/Time
CDT
Temp
°C
App
Temp
°C
Dew
Point
°C
Rel
Hum
%
Delta-T
°C
Wind Press
QNH
hPa
Press
MSL
hPa
Rain since
9am
mm
Dir  Spd
km/h
Gust
km/h
Spd
kts
Gust
kts
14/11:30pm 22.6 22.4 9.0 42 7.3 CALM 0 2 0 1 - - 0.0
14/11:00pm 23.6 22.3 9.2 40 7.8 ENE 6 9 3 5 - - 0.0
14/10:30pm 22.3 22.2 10.8 48 6.4 S 2 4 1 2 - - 0.0

Other Formats:

Comma delimited format used in spreadsheet applications
http://www.bom.gov.au/fwo/IDS60801/IDS60801.94807.axf

JavaScript Object Notation format (JSON) in row-major order
http://www.bom.gov.au/fwo/IDS60801/IDS60801.94807.json